Time;durP1;ratioP1;P1;durP2;ratioP2;P2;SDS_P1;SDS_P2;PMS_P1;PMS_P2;Temp;Humidity;BMP_temperature;BMP_pressure;BME280_temperature;BME280_humidity;BME280_pressure;Samples;Min_cycle;Max_cycle;Signal;HPM_P1;HPM_P2
2020/12/01 00:01:52;;;;;;;10.23;6.50;;;6.20;99.90;;;;;;4152121;28;20425;-73
2020/12/01 00:03:53;;;;;;;13.85;7.70;;;6.20;99.90;;;;;;4172864;28;20263;-74
2020/12/01 00:05:53;;;;;;;9.48;5.90;;;6.10;99.90;;;;;;4176919;28;20037;-74
2020/12/01 00:07:54;;;;;;;10.82;6.50;;;6.20;99.90;;;;;;4175406;28;20033;-74
2020/12/01 00:09:55;;;;;;;10.85;6.75;;;6.20;99.90;;;;;;4175884;28;20036;-73
2020/12/01 00:11:55;;;;;;;9.68;6.28;;;6.20;99.90;;;;;;4176322;28;20040;-73
2020/12/01 00:13:56;;;;;;;10.07;6.65;;;6.20;99.90;;;;;;4174433;28;20041;-73
2020/12/01 00:15:56;;;;;;;10.20;6.38;;;6.20;99.90;;;;;;4160477;28;20082;-73
2020/12/01 00:17:57;;;;;;;10.93;7.13;;;6.20;99.90;;;;;;4177685;28;20473;-73
2020/12/01 00:19:58;;;;;;;9.93;6.05;;;6.30;99.90;;;;;;4177826;28;20044;-73
2020/12/01 00:21:58;;;;;;;12.27;7.80;;;6.30;99.90;;;;;;4174136;28;20774;-74
2020/12/01 00:23:59;;;;;;;14.43;8.70;;;6.30;99.90;;;;;;4177710;28;20511;-73
2020/12/01 00:25:59;;;;;;;12.20;7.53;;;6.30;99.90;;;;;;4178784;28;20037;-73
2020/12/01 00:28:00;;;;;;;13.02;7.93;;;6.30;99.90;;;;;;4176657;28;20441;-73
2020/12/01 00:30:06;;;;;;;11.48;7.82;;;6.30;99.90;;;;;;4179637;28;20155;-73
2020/12/01 00:32:07;;;;;;;12.48;7.40;;;6.30;99.90;;;;;;4176553;28;20040;-73
2020/12/01 00:34:10;;;;;;;13.32;8.40;;;6.30;99.90;;;;;;4179098;28;20056;-73
2020/12/01 00:36:10;;;;;;;;;;;6.30;99.90;;;;;;4179665;28;20033;-73
2020/12/01 00:38:11;;;;;;;11.68;7.68;;;6.30;99.90;;;;;;4178268;28;20353;-73
2020/12/01 00:40:12;;;;;;;12.18;8.07;;;6.30;99.90;;;;;;4176242;28;20080;-74
2020/12/01 00:42:12;;;;;;;14.70;8.80;;;6.30;99.90;;;;;;4174379;28;20087;-74
2020/12/01 00:44:13;;;;;;;12.48;8.45;;;6.30;99.90;;;;;;4178229;28;20040;-74
2020/12/01 00:46:13;;;;;;;12.57;8.20;;;6.30;99.90;;;;;;4176915;28;20037;-73
2020/12/01 00:48:16;;;;;;;14.75;9.52;;;6.40;99.90;;;;;;4159894;28;20026;-73
2020/12/01 00:50:20;;;;;;;15.55;8.75;;;6.40;99.90;;;;;;4175965;28;20025;-73
2020/12/01 00:52:21;;;;;;;14.55;8.93;;;6.40;99.90;;;;;;4176088;28;20064;-73
2020/12/01 00:54:21;;;;;;;15.02;9.15;;;6.40;99.90;;;;;;4175288;28;20040;-73
2020/12/01 00:56:23;;;;;;;13.90;8.68;;;6.40;99.90;;;;;;4176165;28;20032;-73
2020/12/01 00:58:23;;;;;;;14.98;9.88;;;6.40;99.90;;;;;;4167302;28;20074;-73
2020/12/01 01:00:30;;;;;;;15.30;9.15;;;6.40;99.90;;;;;;4167406;28;20033;-73
2020/12/01 01:02:31;;;;;;;14.68;9.82;;;6.50;99.90;;;;;;4174559;28;20585;-73
2020/12/01 01:04:32;;;;;;;15.23;9.70;;;6.50;99.90;;;;;;4175550;28;20124;-73
2020/12/01 01:06:32;;;;;;;17.63;10.75;;;6.50;99.90;;;;;;4175552;28;20099;-73
2020/12/01 01:08:33;;;;;;;17.33;10.02;;;6.50;99.90;;;;;;4177875;28;20029;-73
2020/12/01 01:10:34;;;;;;;16.77;10.60;;;6.50;99.90;;;;;;4177225;28;20055;-73
2020/12/01 01:12:35;;;;;;;18.80;11.68;;;6.60;99.90;;;;;;4175632;28;20037;-73
2020/12/01 01:14:37;;;;;;;16.95;10.13;;;6.60;99.90;;;;;;4176990;28;20094;-73
2020/12/01 01:16:42;;;;;;;18.00;11.75;;;6.60;99.90;;;;;;4177064;28;20037;-73
2020/12/01 01:18:42;;;;;;;17.60;10.95;;;6.60;99.90;;;;;;4174186;28;20504;-73
2020/12/01 01:20:43;;;;;;;17.23;11.00;;;6.60;99.90;;;;;;4161193;28;20088;-73
2020/12/01 01:22:44;;;;;;;16.88;10.30;;;6.70;99.90;;;;;;4179320;28;20037;-73
2020/12/01 01:24:44;;;;;;;16.55;10.70;;;6.70;99.90;;;;;;4176019;28;20132;-73
2020/12/01 01:26:50;;;;;;;16.55;9.70;;;6.60;99.90;;;;;;4178844;28;20485;-73
2020/12/01 01:28:51;;;;;;;18.55;11.63;;;6.70;99.90;;;;;;4179053;28;20091;-73
2020/12/01 01:30:52;;;;;;;17.20;10.52;;;6.70;99.90;;;;;;4176426;28;20506;-73
2020/12/01 01:32:52;;;;;;;16.60;10.45;;;6.70;99.90;;;;;;4177535;28;20072;-73
2020/12/01 01:34:53;;;;;;;19.00;11.15;;;6.70;99.90;;;;;;4177859;28;20048;-73
2020/12/01 01:36:54;;;;;;;18.77;11.73;;;6.70;99.90;;;;;;4173828;28;20045;-73
2020/12/01 01:38:54;;;;;;;17.70;11.77;;;6.70;99.90;;;;;;4177302;28;20247;-74
2020/12/01 01:40:59;;;;;;;16.20;11.30;;;6.70;99.90;;;;;;4182272;28;20083;-73
2020/12/01 01:43:00;;;;;;;21.23;12.38;;;6.70;99.90;;;;;;4180269;28;20029;-73
2020/12/01 01:45:01;;;;;;;20.35;11.85;;;6.70;99.90;;;;;;4163557;28;20093;-73
2020/12/01 01:47:22;;;;;;;17.95;11.88;;;6.70;99.90;;;;;;4181562;28;20059;-73
2020/12/01 01:49:32;;;;;;;19.40;10.80;;;6.70;99.90;;;;;;4178945;28;20033;-73
2020/12/01 01:51:37;;;;;;;15.30;10.25;;;6.80;99.90;;;;;;4178706;28;20046;-73
2020/12/01 01:53:45;;;;;;;16.85;10.82;;;6.80;99.90;;;;;;4179796;28;20036;-73
2020/12/01 01:55:46;;;;;;;19.35;11.93;;;6.80;99.90;;;;;;4177198;28;20052;-73
2020/12/01 01:57:53;;;;;;;22.92;12.30;;;6.90;99.90;;;;;;4180996;28;20036;-73
2020/12/01 01:59:54;;;;;;;19.90;11.93;;;6.80;99.90;;;;;;4163597;28;20088;-73
2020/12/01 02:01:55;;;;;;;19.98;12.00;;;6.80;99.90;;;;;;4179339;28;20059;-74
2020/12/01 02:03:59;;;;;;;;;;;6.90;99.90;;;;;;4180885;28;20029;-73
2020/12/01 02:06:01;;;;;;;20.27;10.38;;;6.90;99.90;;;;;;4162427;28;19916;-73
2020/12/01 02:08:02;;;;;;;15.60;9.70;;;6.90;99.90;;;;;;4178954;28;20040;-73
2020/12/01 02:10:02;;;;;;;22.95;11.73;;;6.90;99.90;;;;;;4179374;28;20471;-73
2020/12/01 02:12:05;;;;;;;16.70;10.75;;;6.90;99.90;;;;;;4177719;28;20128;-73
2020/12/01 02:14:10;;;;;;;17.65;10.85;;;7.00;99.90;;;;;;4162606;28;20457;-73
2020/12/01 02:16:11;;;;;;;18.33;10.93;;;7.00;99.90;;;;;;4177904;28;20048;-73
2020/12/01 02:18:11;;;;;;;17.00;10.52;;;7.00;99.90;;;;;;4178602;28;20115;-73
2020/12/01 02:20:16;;;;;;;15.35;9.35;;;7.00;99.90;;;;;;4177431;28;20021;-73
2020/12/01 02:22:21;;;;;;;18.13;11.05;;;7.00;99.90;;;;;;4176809;28;20088;-74
2020/12/01 02:24:27;;;;;;;15.90;10.15;;;7.00;99.90;;;;;;4178542;28;20342;-73
2020/12/01 02:26:28;;;;;;;15.63;8.93;;;7.10;99.90;;;;;;4178635;28;20048;-73
2020/12/01 02:28:30;;;;;;;17.77;10.60;;;7.00;99.90;;;;;;4176649;28;20033;-73
2020/12/01 02:30:30;;;;;;;14.60;9.82;;;7.00;99.90;;;;;;4178311;28;20059;-73
2020/12/01 02:32:31;;;;;;;17.25;10.02;;;7.00;99.90;;;;;;4178163;28;20468;-73
2020/12/01 02:34:36;;;;;;;14.60;9.63;;;7.00;99.90;;;;;;4176322;28;20120;-73
2020/12/01 02:36:37;;;;;;;16.20;9.05;;;7.00;99.90;;;;;;4176996;28;20037;-73
2020/12/01 02:38:38;;;;;;;14.32;9.20;;;7.00;99.90;;;;;;4176390;28;20139;-74
2020/12/01 02:40:38;;;;;;;16.33;9.63;;;7.00;99.90;;;;;;4176333;28;20463;-73
2020/12/01 02:42:39;;;;;;;17.40;9.90;;;7.00;99.90;;;;;;4176325;28;20060;-73
2020/12/01 02:44:40;;;;;;;16.15;9.18;;;7.00;99.90;;;;;;4176386;28;20033;-74
2020/12/01 02:46:41;;;;;;;15.88;9.88;;;7.00;99.90;;;;;;4177981;28;20036;-74
2020/12/01 02:48:41;;;;;;;13.95;8.65;;;7.00;99.90;;;;;;4178458;28;20063;-74
2020/12/01 02:50:43;;;;;;;11.95;7.65;;;7.00;99.90;;;;;;4174445;28;20037;-73
2020/12/01 02:52:44;;;;;;;12.18;7.90;;;7.00;99.90;;;;;;4176092;28;20120;-74
2020/12/01 02:54:44;;;;;;;10.85;7.13;;;7.00;99.90;;;;;;4159484;28;20033;-74
2020/12/01 02:56:45;;;;;;;12.43;6.82;;;7.00;99.90;;;;;;4173324;28;20040;-73
2020/12/01 02:58:46;;;;;;;8.63;5.60;;;7.00;99.90;;;;;;4177011;28;20037;-74
2020/12/01 03:00:47;;;;;;;11.32;5.30;;;7.10;99.90;;;;;;4176611;28;20028;-74
2020/12/01 03:02:47;;;;;;;10.07;5.70;;;7.10;99.90;;;;;;4176932;28;20037;-73
2020/12/01 03:04:48;;;;;;;6.00;4.32;;;7.20;99.90;;;;;;4178085;28;20021;-74
2020/12/01 03:06:49;;;;;;;11.70;5.13;;;7.20;99.90;;;;;;4176479;28;20477;-73
2020/12/01 03:08:59;;;;;;;9.90;4.22;;;7.30;99.90;;;;;;4177735;28;20464;-74
2020/12/01 03:11:00;;;;;;;9.52;4.45;;;7.30;99.90;;;;;;4159607;28;20030;-74
2020/12/01 03:13:01;;;;;;;8.45;4.25;;;7.40;99.90;;;;;;4158938;28;20041;-73
2020/12/01 03:15:04;;;;;;;10.63;4.63;;;7.40;99.90;;;;;;4159874;28;20756;-73
2020/12/01 03:17:05;;;;;;;9.38;4.40;;;7.40;99.90;;;;;;4174139;28;20037;-73
2020/12/01 03:19:06;;;;;;;8.02;4.38;;;7.50;99.90;;;;;;4177123;28;20040;-74
2020/12/01 03:21:07;;;;;;;10.45;4.65;;;7.50;99.90;;;;;;4177525;28;20029;-73
2020/12/01 03:23:08;;;;;;;9.82;5.05;;;7.50;99.90;;;;;;4176377;28;20071;-74
2020/12/01 03:25:09;;;;;;;10.40;4.95;;;7.50;99.90;;;;;;4177301;28;20041;-74
2020/12/01 03:27:09;;;;;;;8.15;4.93;;;7.50;99.90;;;;;;4175769;28;20033;-74
2020/12/01 03:29:10;;;;;;;8.23;5.40;;;7.50;99.90;;;;;;4159032;28;20421;-74
2020/12/01 03:31:17;;;;;;;10.10;5.35;;;7.50;99.90;;;;;;4177126;28;20048;-73
2020/12/01 03:33:19;;;;;;;10.43;4.90;;;7.50;99.90;;;;;;4175577;28;20052;-74
2020/12/01 03:35:19;;;;;;;10.00;4.82;;;7.50;99.90;;;;;;4175311;28;20029;-74
2020/12/01 03:37:20;;;;;;;7.32;4.28;;;7.60;99.90;;;;;;4175843;28;20037;-74
2020/12/01 03:39:20;;;;;;;10.43;4.72;;;7.60;99.90;;;;;;4159339;28;20859;-74
2020/12/01 03:41:21;;;;;;;7.13;4.47;;;7.60;99.90;;;;;;4175625;28;20444;-74
2020/12/01 03:43:22;;;;;;;8.57;4.90;;;7.60;99.90;;;;;;4174369;28;20108;-74
2020/12/01 03:45:22;;;;;;;8.15;4.30;;;7.60;99.90;;;;;;4177260;28;20033;-74
2020/12/01 03:47:23;;;;;;;9.35;4.53;;;7.70;99.90;;;;;;4176823;28;20041;-74
2020/12/01 03:49:24;;;;;;;9.65;4.55;;;7.70;99.90;;;;;;4174682;28;20162;-73
2020/12/01 03:51:27;;;;;;;8.98;4.57;;;7.70;99.90;;;;;;4174728;28;20025;-74
2020/12/01 03:53:28;;;;;;;8.35;4.45;;;7.70;99.90;;;;;;4175294;28;20048;-74
2020/12/01 03:55:29;;;;;;;11.57;4.22;;;7.70;99.90;;;;;;4158240;28;20060;-74
2020/12/01 03:57:29;;;;;;;6.45;3.72;;;7.70;99.90;;;;;;4176914;28;20041;-73
2020/12/01 03:59:30;;;;;;;9.00;4.03;;;7.70;99.90;;;;;;4176828;28;20396;-74
2020/12/01 04:01:31;;;;;;;9.85;4.45;;;7.80;99.90;;;;;;4158170;28;20469;-74
2020/12/01 04:03:31;;;;;;;8.95;4.13;;;7.80;99.90;;;;;;4176669;28;20040;-74
2020/12/01 04:05:32;;;;;;;6.22;3.88;;;7.80;99.90;;;;;;4175293;28;20108;-73
2020/12/01 04:07:33;;;;;;;6.93;3.80;;;7.80;99.90;;;;;;4176524;28;21799;-73
2020/12/01 04:09:33;;;;;;;12.80;4.30;;;7.80;99.90;;;;;;4158505;28;20041;-73
2020/12/01 04:11:34;;;;;;;10.93;3.80;;;7.80;99.90;;;;;;4174895;28;20048;-73
2020/12/01 04:13:34;;;;;;;12.05;3.90;;;7.80;99.90;;;;;;4175138;28;20481;-73
2020/12/01 04:15:35;;;;;;;7.63;3.58;;;7.80;99.90;;;;;;4174874;28;20090;-74
2020/12/01 04:17:36;;;;;;;5.75;2.72;;;7.80;99.90;;;;;;4177027;28;20051;-73
2020/12/01 04:19:37;;;;;;;8.23;3.28;;;7.70;99.90;;;;;;4175092;28;20041;-74
2020/12/01 04:21:38;;;;;;;8.63;2.97;;;7.80;99.90;;;;;;4174947;28;20028;-73
2020/12/01 04:23:38;;;;;;;8.30;3.03;;;7.80;99.90;;;;;;4168983;28;20037;-73
2020/12/01 04:25:39;;;;;;;7.65;2.50;;;7.80;99.90;;;;;;4175128;28;20573;-74
2020/12/01 04:27:39;;;;;;;8.32;2.92;;;7.80;99.90;;;;;;4158697;28;20041;-74
2020/12/01 04:29:40;;;;;;;6.40;2.58;;;7.80;99.90;;;;;;4176470;28;20033;-74
2020/12/01 04:31:41;;;;;;;7.55;2.70;;;7.80;99.90;;;;;;4176627;28;20380;-74
2020/12/01 04:33:41;;;;;;;7.40;2.67;;;7.80;99.90;;;;;;4158420;28;20083;-73
2020/12/01 04:35:42;;;;;;;6.78;2.53;;;7.80;99.90;;;;;;4191581;28;20115;-73
2020/12/01 04:37:43;;;;;;;4.70;2.10;;;7.80;99.90;;;;;;4174628;28;20099;-73
2020/12/01 04:39:43;;;;;;;8.68;2.53;;;7.80;99.90;;;;;;4174963;28;20374;-74
2020/12/01 04:41:44;;;;;;;8.27;2.22;;;7.80;99.90;;;;;;4176412;28;20116;-73
2020/12/01 04:43:48;;;;;;;6.82;2.03;;;7.80;99.90;;;;;;4174823;28;20029;-73
2020/12/01 04:45:51;;;;;;;10.38;2.72;;;7.80;99.90;;;;;;4176409;28;20627;-73
2020/12/01 04:47:59;;;;;;;6.70;2.58;;;7.80;99.90;;;;;;4175957;28;20053;-73
2020/12/01 04:50:09;;;;;;;6.97;2.28;;;7.70;99.90;;;;;;4177166;28;20052;-74
2020/12/01 04:52:44;;;;;;;8.00;2.03;;;7.80;99.90;;;;;;4174344;28;20060;-73
2020/12/01 04:55:12;;;;;;;8.52;2.33;;;7.70;99.90;;;;;;4157836;28;20032;-73
2020/12/01 04:57:30;;;;;;;5.47;1.60;;;7.80;99.90;;;;;;4158075;28;20042;-74
2020/12/01 04:59:44;;;;;;;8.55;1.80;;;7.70;99.90;;;;;;4175231;28;20025;-73
2020/12/01 05:01:57;;;;;;;5.75;1.60;;;7.70;99.90;;;;;;4169942;28;20758;-73
2020/12/01 05:04:23;;;;;;;4.97;2.03;;;7.70;99.90;;;;;;4165028;28;20112;-73
2020/12/01 05:08:51;;;;;;;10.25;1.75;;;7.70;99.90;;;;;;4171156;28;20028;-73
2020/12/01 05:10:52;;;;;;;;;;;7.70;99.90;;;;;;4175884;28;20033;-73
2020/12/01 05:13:06;;;;;;;7.60;2.00;;;7.70;99.90;;;;;;4175579;28;20314;-73
2020/12/01 05:15:28;;;;;;;8.07;2.30;;;7.70;99.90;;;;;;4162663;28;20029;-73
2020/12/01 05:17:51;;;;;;;7.83;2.17;;;7.70;99.90;;;;;;4171958;28;20044;-73
2020/12/01 05:19:51;;;;;;;9.38;2.05;;;7.70;99.90;;;;;;4172706;28;20038;-73
2020/12/01 05:21:52;;;;;;;8.82;2.25;;;7.70;99.90;;;;;;4175135;28;20029;-74
2020/12/01 05:23:53;;;;;;;7.57;1.77;;;7.70;99.90;;;;;;4178912;28;20041;-74
2020/12/01 05:26:03;;;;;;;11.18;2.35;;;7.70;99.90;;;;;;4179033;28;20094;-74
2020/12/01 05:28:11;;;;;;;9.10;2.22;;;7.70;99.90;;;;;;4179852;28;20118;-74
2020/12/01 05:30:14;;;;;;;7.38;2.20;;;7.70;99.90;;;;;;4171159;28;20061;-74
2020/12/01 05:32:27;;;;;;;9.85;2.45;;;7.70;99.90;;;;;;4177361;28;20045;-75
2020/12/01 05:34:28;;;;;;;12.50;2.35;;;7.70;99.90;;;;;;4170520;28;20033;-73
2020/12/01 05:36:34;;;;;;;5.45;1.77;;;7.70;99.90;;;;;;4177962;28;20052;-73
2020/12/01 05:38:34;;;;;;;7.00;2.03;;;7.70;99.90;;;;;;4179453;28;20033;-73
2020/12/01 05:40:35;;;;;;;9.80;2.72;;;7.70;99.90;;;;;;4179683;28;20102;-73
2020/12/01 05:42:42;;;;;;;8.25;2.20;;;7.70;99.90;;;;;;4178376;28;20439;-73
2020/12/01 05:44:44;;;;;;;6.60;2.08;;;7.70;99.90;;;;;;4178367;28;20044;-73
2020/12/01 05:47:00;;;;;;;12.70;2.42;;;7.70;99.90;;;;;;4173009;28;20041;-72
2020/12/01 05:49:25;;;;;;;9.85;1.92;;;7.60;99.90;;;;;;4173579;28;20029;-73
2020/12/01 05:51:47;;;;;;;10.63;2.40;;;7.60;99.90;;;;;;4165636;28;20042;-73
2020/12/01 05:53:58;;;;;;;10.35;2.28;;;7.70;99.90;;;;;;4172609;28;20060;-73
2020/12/01 05:56:13;;;;;;;5.40;1.77;;;7.60;99.90;;;;;;4174439;28;20029;-73
2020/12/01 05:58:14;;;;;;;11.48;2.33;;;7.60;99.90;;;;;;4152770;28;20033;-73
2020/12/01 06:00:20;;;;;;;12.18;2.92;;;7.60;99.90;;;;;;4170590;28;20497;-73
2020/12/01 06:02:32;;;;;;;9.32;1.60;;;7.60;99.90;;;;;;4177828;28;20508;-73
2020/12/01 06:04:33;;;;;;;9.43;1.92;;;7.60;99.90;;;;;;4171326;28;20102;-73
2020/12/01 06:06:57;;;;;;;10.25;2.40;;;7.60;99.90;;;;;;4178609;28;20045;-73
2020/12/01 06:09:01;;;;;;;10.50;2.40;;;7.60;99.90;;;;;;4179407;28;20033;-73
2020/12/01 06:11:35;;;;;;;12.35;2.47;;;7.60;99.90;;;;;;4176561;28;20029;-73
2020/12/01 06:13:44;;;;;;;5.65;1.80;;;7.60;99.90;;;;;;4165597;28;20040;-74
2020/12/01 06:16:13;;;;;;;12.48;2.70;;;7.60;99.90;;;;;;4151615;28;20690;-74
2020/12/01 06:18:25;;;;;;;7.80;2.28;;;7.60;99.90;;;;;;4178332;28;20041;-74
2020/12/01 06:20:30;;;;;;;8.40;2.25;;;7.60;99.90;;;;;;4170925;28;20037;-74
2020/12/01 06:22:41;;;;;;;10.45;2.40;;;7.60;99.90;;;;;;4177397;28;20113;-74
2020/12/01 06:25:07;;;;;;;7.30;2.58;;;7.60;99.90;;;;;;4166817;28;20121;-72
2020/12/01 06:27:30;;;;;;;10.43;2.58;;;7.70;99.90;;;;;;4174677;28;20496;-74
2020/12/01 06:29:49;;;;;;;8.85;2.40;;;7.60;99.90;;;;;;4177886;28;20685;-74
2020/12/01 06:32:01;;;;;;;9.77;2.53;;;7.60;99.90;;;;;;4173648;28;20086;-73
2020/12/01 06:34:40;;;;;;;12.93;3.08;;;7.70;99.90;;;;;;4172353;28;20045;-74
2020/12/01 06:37:18;;;;;;;9.82;2.40;;;7.70;99.90;;;;;;4171317;28;20519;-74
2020/12/01 06:39:46;;;;;;;9.07;2.63;;;7.70;99.90;;;;;;4144078;28;20069;-74
2020/12/01 06:42:01;;;;;;;6.63;1.85;;;7.70;99.90;;;;;;4164624;28;20060;-73
2020/12/01 06:44:07;;;;;;;13.20;4.10;;;7.70;99.90;;;;;;4176324;28;20037;-74
2020/12/01 06:46:32;;;;;;;11.25;3.30;;;7.70;99.90;;;;;;4152166;28;20210;-74
2020/12/01 06:48:47;;;;;;;12.75;3.03;;;7.70;99.90;;;;;;4149851;28;20111;-74
2020/12/01 06:50:59;;;;;;;10.65;2.60;;;7.70;99.90;;;;;;4170091;28;20121;-74
2020/12/01 06:53:03;;;;;;;11.60;3.05;;;7.70;99.90;;;;;;4173113;28;20121;-74
2020/12/01 06:55:04;;;;;;;9.88;3.20;;;7.70;99.90;;;;;;4178338;28;20032;-74
2020/12/01 06:57:20;;;;;;;11.00;2.33;;;7.70;99.90;;;;;;4178241;28;20110;-74
2020/12/01 06:59:21;;;;;;;9.73;2.90;;;7.70;99.90;;;;;;4176459;28;20037;-74
2020/12/01 07:01:31;;;;;;;12.30;2.78;;;7.70;99.90;;;;;;4178287;28;20123;-78
2020/12/01 07:03:32;;;;;;;8.43;2.63;;;7.80;99.90;;;;;;4164978;28;20041;-76
2020/12/01 07:05:33;;;;;;;8.00;2.78;;;7.80;99.90;;;;;;4176679;28;20040;-76
2020/12/01 07:07:41;;;;;;;6.50;2.60;;;7.80;99.90;;;;;;4177156;28;20029;-76
2020/12/01 07:09:42;;;;;;;10.57;2.88;;;7.80;99.90;;;;;;4179226;28;20056;-76
2020/12/01 07:12:12;;;;;;;14.20;3.15;;;7.70;99.90;;;;;;4143791;28;20041;-76
2020/12/01 07:14:20;;;;;;;6.95;2.40;;;7.80;99.90;;;;;;4176302;28;20041;-76
2020/12/01 07:16:37;;;;;;;10.05;3.03;;;7.80;99.90;;;;;;4160797;28;20037;-76
2020/12/01 07:18:37;;;;;;;6.53;2.40;;;7.80;99.90;;;;;;4171414;28;20083;-76
2020/12/01 07:20:40;;;;;;;16.88;3.63;;;7.80;99.90;;;;;;4176866;28;20068;-76
2020/12/01 07:23:05;;;;;;;10.13;2.42;;;7.80;99.90;;;;;;4178411;28;20040;-76
2020/12/01 07:25:33;;;;;;;11.15;3.15;;;7.70;99.90;;;;;;4174388;28;20048;-76
2020/12/01 07:27:46;;;;;;;8.60;3.00;;;7.70;99.90;;;;;;4162532;28;20420;-76
2020/12/01 07:29:57;;;;;;;8.30;2.70;;;7.80;99.90;;;;;;4176776;28;20409;-76
2020/12/01 07:32:25;;;;;;;7.38;2.63;;;7.80;99.90;;;;;;4178748;28;20032;-76
2020/12/01 07:34:32;;;;;;;11.52;2.78;;;7.70;99.90;;;;;;4176943;28;20130;-75
2020/12/01 07:36:44;;;;;;;9.20;2.67;;;7.70;99.90;;;;;;4175890;28;20021;-75
2020/12/01 07:38:47;;;;;;;13.02;3.00;;;7.70;99.90;;;;;;4178308;28;20029;-76
2020/12/01 07:40:54;;;;;;;10.25;3.00;;;7.70;99.90;;;;;;4174609;28;20026;-76
2020/12/01 07:43:01;;;;;;;14.27;3.35;;;7.80;99.90;;;;;;4151444;28;20089;-76
2020/12/01 07:45:15;;;;;;;10.68;3.05;;;7.80;99.90;;;;;;4175945;28;20037;-76
2020/12/01 07:47:22;;;;;;;10.30;2.65;;;7.80;99.90;;;;;;4166157;28;20097;-76
2020/12/01 07:49:26;;;;;;;10.05;2.75;;;7.80;99.90;;;;;;4177624;28;20036;-75
2020/12/01 07:51:29;;;;;;;12.93;3.25;;;7.80;99.90;;;;;;4164251;28;20120;-75
2020/12/01 07:53:33;;;;;;;11.73;3.38;;;7.80;99.90;;;;;;4173795;28;20045;-75
2020/12/01 07:56:00;;;;;;;8.57;2.88;;;7.80;99.90;;;;;;4176642;28;20029;-75
2020/12/01 07:58:23;;;;;;;9.50;3.38;;;7.80;99.90;;;;;;4172923;28;20030;-76
2020/12/01 08:00:24;;;;;;;9.35;3.03;;;7.80;99.90;;;;;;4170296;28;20033;-75
2020/12/01 08:02:29;;;;;;;8.25;2.58;;;7.80;99.90;;;;;;4167674;28;20052;-75
2020/12/01 08:04:30;;;;;;;8.52;2.95;;;7.80;99.90;;;;;;4176463;28;20033;-75
2020/12/01 08:06:30;;;;;;;11.85;2.85;;;7.80;99.90;;;;;;4175951;28;20033;-76
2020/12/01 08:08:37;;;;;;;9.65;2.45;;;7.80;99.90;;;;;;4178172;28;20060;-76
2020/12/01 08:10:38;;;;;;;7.88;2.95;;;7.90;99.90;;;;;;4151452;28;20037;-75
2020/12/01 08:12:44;;;;;;;8.80;3.05;;;7.90;99.90;;;;;;4169261;28;20033;-76
2020/12/01 08:14:53;;;;;;;12.48;3.25;;;7.90;99.90;;;;;;4159741;28;20033;-76
2020/12/01 08:17:13;;;;;;;9.05;3.22;;;7.90;99.90;;;;;;4158957;28;20022;-76
2020/12/01 08:19:13;;;;;;;10.65;4.47;;;7.90;99.90;;;;;;4160053;28;20036;-75
2020/12/01 08:21:36;;;;;;;11.65;4.25;;;7.90;99.90;;;;;;4160762;28;20037;-76
2020/12/01 08:23:47;;;;;;;12.75;3.63;;;7.90;99.90;;;;;;4159043;28;20042;-76
2020/12/01 08:26:20;;;;;;;8.23;2.83;;;7.90;99.90;;;;;;4175985;28;20051;-75
2020/12/01 08:28:41;;;;;;;7.78;2.95;;;7.90;99.90;;;;;;4174160;28;20033;-76
2020/12/01 08:30:55;;;;;;;7.97;3.05;;;7.90;99.90;;;;;;4182553;28;20377;-76
2020/12/01 08:33:07;;;;;;;8.02;2.95;;;8.00;99.90;;;;;;4158433;28;20091;-75
2020/12/01 08:35:27;;;;;;;10.43;3.50;;;8.00;99.90;;;;;;4175609;28;20147;-76
2020/12/01 08:37:33;;;;;;;6.13;2.75;;;8.00;99.90;;;;;;4153672;28;20037;-76
2020/12/01 08:39:55;;;;;;;8.25;2.90;;;8.00;99.90;;;;;;4176803;28;20021;-76
2020/12/01 08:42:14;;;;;;;10.73;3.30;;;8.00;99.90;;;;;;4156385;28;20034;-76
2020/12/01 08:44:32;;;;;;;5.15;2.25;;;8.00;99.90;;;;;;4168364;28;20043;-76
2020/12/01 08:46:42;;;;;;;15.63;3.65;;;8.00;99.90;;;;;;4152019;28;20053;-76
2020/12/01 08:49:06;;;;;;;10.00;3.22;;;8.00;99.90;;;;;;4174781;28;20103;-76
2020/12/01 08:51:18;;;;;;;10.68;3.20;;;8.00;99.90;;;;;;4175578;28;20037;-76
2020/12/01 08:53:20;;;;;;;12.85;3.83;;;8.10;99.90;;;;;;4149457;28;20033;-76
2020/12/01 08:55:35;;;;;;;12.93;3.95;;;8.10;99.90;;;;;;4157122;28;20529;-76
2020/12/01 08:57:38;;;;;;;11.73;4.53;;;8.10;99.90;;;;;;4169114;28;20041;-76
2020/12/01 09:00:04;;;;;;;;;;;8.10;99.90;;;;;;4175902;28;20115;-76
2020/12/01 09:02:09;;;;;;;9.50;3.92;;;8.10;99.90;;;;;;4170343;28;19909;-76
2020/12/01 09:04:30;;;;;;;7.85;3.03;;;8.10;99.90;;;;;;4175626;28;20083;-76
2020/12/01 09:06:36;;;;;;;6.38;2.50;;;8.10;99.90;;;;;;4171412;28;20037;-76
2020/12/01 09:08:54;;;;;;;8.52;2.75;;;8.20;99.90;;;;;;4174206;28;20033;-76
2020/12/01 09:21:57;;;;;;;7.85;3.03;;;8.20;99.90;;;;;;4173003;28;20067;-78
2020/12/01 09:24:03;;;;;;;8.02;3.83;;;8.20;99.90;;;;;;4176587;28;20037;-78
2020/12/01 09:26:20;;;;;;;6.85;3.08;;;8.20;99.90;;;;;;4151600;28;20498;-78
2020/12/01 09:28:25;;;;;;;7.20;2.50;;;8.20;99.90;;;;;;4175387;28;20104;-77
2020/12/01 09:30:38;;;;;;;5.93;2.92;;;8.30;99.90;;;;;;4175746;28;20122;-77
2020/12/01 09:32:39;;;;;;;6.40;2.67;;;8.20;99.90;;;;;;4159647;28;20033;-77
2020/12/01 09:34:40;;;;;;;5.78;2.85;;;8.30;99.90;;;;;;4175870;28;20499;-77
2020/12/01 09:36:41;;;;;;;4.72;2.95;;;8.30;99.90;;;;;;4175994;28;20059;-77
2020/12/01 09:38:42;;;;;;;3.75;2.92;;;8.30;99.90;;;;;;4173664;28;20017;-77
2020/12/01 09:40:45;;;;;;;5.85;2.90;;;8.30;99.90;;;;;;4175553;28;20139;-77
2020/12/01 09:42:50;;;;;;;4.88;2.90;;;8.30;99.90;;;;;;4175687;28;20477;-77
2020/12/01 09:45:17;;;;;;;3.65;2.60;;;8.30;99.90;;;;;;4158456;28;20101;-77
2020/12/01 09:49:31;;;;;;;3.42;2.60;;;8.30;99.90;;;;;;4166825;28;20037;-78
2020/12/01 09:51:32;;;;;;;2.55;2.08;;;8.30;99.90;;;;;;4173743;28;20095;-78
2020/12/01 09:54:06;;;;;;;4.13;2.58;;;8.30;99.90;;;;;;4156782;28;20036;-78
2020/12/01 09:56:31;;;;;;;4.13;2.88;;;8.40;99.90;;;;;;4173790;28;20033;-77
2020/12/01 09:59:18;;;;;;;6.75;2.63;;;8.40;99.90;;;;;;4176561;28;20071;-78
2020/12/01 10:04:42;;;;;;;2.58;2.25;;;8.40;99.90;;;;;;4179675;28;20045;-77
2020/12/01 10:07:29;;;;;;;4.88;2.25;;;8.40;99.90;;;;;;4170283;28;20025;-78
2020/12/01 10:08:18;;;;;;;3.67;2.15;;;8.40;99.90;;;;;;4176623;28;20793;-77
2020/12/01 10:12:55;;;;;;;3.70;2.47;;;8.40;99.90;;;;;;4180804;28;20033;-78
2020/12/01 10:20:05;;;;;;;5.75;3.22;;;8.50;99.90;;;;;;4155974;28;20029;-78
2020/12/01 10:34:12;;;;;;;6.90;4.57;;;8.60;99.90;;;;;;4178131;28;20045;-78
2020/12/01 10:36:22;;;;;;;8.25;4.60;;;8.60;99.90;;;;;;4177824;28;20096;-78
2020/12/01 10:38:47;;;;;;;6.60;4.32;;;8.60;99.90;;;;;;4170803;28;20112;-77
2020/12/01 10:40:48;;;;;;;8.68;4.72;;;8.60;99.90;;;;;;4168731;28;20036;-78
2020/12/01 10:42:49;;;;;;;5.88;4.10;;;8.60;99.90;;;;;;4179334;28;20078;-78
2020/12/01 10:44:49;;;;;;;9.00;4.30;;;8.70;99.90;;;;;;4176374;28;20029;-77
2020/12/01 10:46:51;;;;;;;8.57;4.50;;;8.70;99.90;;;;;;4179428;28;20030;-77
2020/12/01 10:48:52;;;;;;;8.87;4.83;;;8.70;99.90;;;;;;4177546;28;20083;-77
2020/12/01 10:50:54;;;;;;;6.45;3.83;;;8.70;99.90;;;;;;4176566;28;20032;-78
2020/12/01 10:52:56;;;;;;;8.85;3.75;;;8.70;99.90;;;;;;4158564;28;20038;-77
2020/12/01 10:55:04;;;;;;;4.93;3.50;;;8.80;99.90;;;;;;4176018;28;20107;-77
2020/12/01 10:57:05;;;;;;;5.22;3.78;;;8.80;99.90;;;;;;4152626;28;20038;-78
2020/12/01 10:59:05;;;;;;;5.97;3.83;;;8.80;99.90;;;;;;4160715;28;20032;-77
2020/12/01 11:01:07;;;;;;;7.07;3.75;;;8.80;99.90;;;;;;4177640;28;20756;-78
2020/12/01 11:03:08;;;;;;;5.18;3.45;;;8.80;99.90;;;;;;4177914;28;20025;-78
2020/12/01 11:05:16;;;;;;;7.43;3.20;;;8.80;99.90;;;;;;4175532;28;20032;-78
2020/12/01 11:07:17;;;;;;;5.50;3.22;;;8.80;99.90;;;;;;4177058;28;20025;-78
2020/12/01 11:09:24;;;;;;;5.50;2.20;;;8.80;99.90;;;;;;4178639;28;20021;-78
2020/12/01 11:11:25;;;;;;;7.50;2.70;;;8.80;99.90;;;;;;4178421;28;20079;-78
2020/12/01 11:13:25;;;;;;;8.52;2.47;;;8.80;99.90;;;;;;4179091;28;20037;-78
2020/12/01 11:15:26;;;;;;;6.53;2.33;;;8.80;99.90;;;;;;4179167;28;20033;-78
2020/12/01 11:17:27;;;;;;;5.68;2.05;;;8.90;99.90;;;;;;4160827;28;20536;-78
2020/12/01 11:19:28;;;;;;;8.77;2.25;;;8.90;99.90;;;;;;4160831;28;20033;-78
2020/12/01 11:21:33;;;;;;;12.15;2.85;;;8.90;99.90;;;;;;4157294;28;20092;-78
2020/12/01 11:23:35;;;;;;;10.77;2.60;;;8.90;99.90;;;;;;4178161;28;20611;-77
2020/12/01 11:25:40;;;;;;;12.75;2.63;;;8.90;99.90;;;;;;4176469;28;20041;-78
2020/12/01 11:27:42;;;;;;;7.35;2.33;;;8.90;99.90;;;;;;4155225;28;20096;-77
2020/12/01 11:29:42;;;;;;;8.73;2.42;;;9.00;99.90;;;;;;4172716;28;20033;-78
2020/12/01 11:31:55;;;;;;;8.43;2.15;;;9.00;99.90;;;;;;4176275;28;20397;-78
2020/12/01 11:34:00;;;;;;;14.10;2.70;;;9.00;99.90;;;;;;4142837;28;20052;-78
2020/12/01 11:36:07;;;;;;;13.95;2.78;;;9.00;99.90;;;;;;4165356;28;20037;-78
2020/12/01 11:38:14;;;;;;;18.35;3.05;;;9.00;99.90;;;;;;4176805;28;20057;-78
2020/12/01 11:40:15;;;;;;;18.70;2.83;;;9.00;99.90;;;;;;4160070;28;20060;-78
2020/12/01 11:42:41;;;;;;;12.73;2.78;;;9.00;99.90;;;;;;4176174;28;20032;-78